Details for Ryanair at LEBL




Go Back


Latest METAR
Local Time

LEBL 181330Z 10008KT 9999 BKN013 FEW025CB 24/21 Q1017 NOSIG
18/09/2018, 15:52:01

Description
Results
Ryanair Logo
Number of Pilots based at LEBL
1 Pilots Based here
Number of Ryanair Flights Departed from LEBL
14 Flights Departed
Number of Ryanair Flights Arrived at LEBL
18 Flights Arrived
Number of Ryanair Schedules Departing from LEBL
142 Schedules
Number of Ryanair Schedules Arriving at LEBL
137 Schedules
Number of Ryanair Schedules Departing from LEBL availible today
63 Schedules Today
Number of Ryanair Schedules Arriving at LEBL availible today
63 Schedules Today
Average Landing Rate at LEBL
-189 fpm
Ryanair Average Landing Rate at LEBL
-185 fpm
Total Fuel Purchased at LEBL by Ryanair
81,192.25 kgs / 178,996.43 lbs

Pilots Based at LEBL


Pilot ID
Pilot Name
Pilot Rank
No. of Flights
No. of Flying Hours
Jesus Serrano
4
21.09
Content